2012 Roseville Big Bird Run

back to results

Nov. 11, 2012

2012 Roseville Big Bird Run
Roseville, MI
Provided by Hansons Race Management


10K
Overall Female Open Winners

Place Name City Age Overall Time Pace
1 Ariana Hilborn Lake Orion MI 32 1 35:49.1 5:47/M

Overall Female Master Winners

Place Name City Age Overall Time Pace
1 Laura Shamblin Washington MI 45 10 43:29.4 7:01/M

Female 14 and under

Place Name City Age Overall Time Pace
1 Samantha Hanson Sterling Heights MI 14 5 41:23.2 6:40/M
2 Brianna Mozariwskyj Utica MI 14 8 42:53.6 6:55/M
3 Nicole Sobica Clinton Twp MI 0 115 1:02:08.0 10:01/M

Female 15 to 19

Place Name City Age Overall Time Pace
1 Ashlie Baumann Sterling Heights MI 15 2 40:09.8 6:29/M
2 Jennifer Ponkowski Washington MI 16 7 42:34.1 6:52/M
3 Miranda Wolanin Sterling Heights MI 16 11 43:34.5 7:02/M
4 Megan MacCiamei Utica MI 17 12 43:42.8 7:03/M
5 Jenna Anderson Sterling Heights MI 15 13 44:23.8 7:10/M
6 Maria Corona Sterling Heights MI 16 23 50:21.6 8:07/M
7 Bridgette Louwers St. Clair Shores MI 16 24 50:21.6 8:07/M
8 Olivia Peraino Eastpointe MI 16 25 50:24.5 8:08/M
9 Navica Colonna Hamtramck MI 17 35 52:09.4 8:25/M
10 Carmen Folk St. Clair Shores MI 19 62 54:45.0 8:50/M
11 Allison Kotelniski Roseville MI 15 72 55:43.7 8:59/M
12 Katelyn Haney Roseville MI 19 164 1:17:03.7 12:26/M

Female 20 to 24

Place Name City Age Overall Time Pace
1 Sara Ropp Auburn Hills MI 24 3 40:54.5 6:36/M
2 Danielle Dewey Sterling Heights MI 24 19 49:06.8 7:55/M
3 Brittany Gilpin Grosse Pte Wds MI 24 37 52:25.6 8:27/M
4 Kaci Navarre Trenton MI 23 40 52:57.2 8:32/M
5 Amanda Furwa Warren, MI 24 46 54:03.8 8:43/M
6 Jennifer El Aile Troy MI 24 78 56:33.6 9:07/M
7 Kimberly Krusinski Roseville MI 21 121 1:03:22.3 10:13/M
8 Marissa Jones Royal Oak MI 21 130 1:04:15.2 10:22/M
9 Maureen Sutter Utica MI 23 132 1:05:03.9 10:30/M
10 Heather Dudek Utica MI 23 134 1:05:11.7 10:31/M
11 Ashley Nash Mount Clemens MI 23 138 1:05:36.0 10:35/M
12 Lauren Burleson Hazel Park MI 23 145 1:07:55.8 10:57/M
13 Julia Palazzolo Clinton Township MI 23 165 1:17:33.1 12:30/M

Female 25 to 29

Place Name City Age Overall Time Pace
1 Carrie Backman Grosse Pte Wds MI 26 15 46:11.9 7:27/M
2 Cassie Williams Caro MI 26 20 49:16.2 7:57/M
3 Mollie Harms Farmington MI 27 30 51:19.4 8:17/M
4 Ashley Peterson St. Clair Shores MI 26 50 54:14.0 8:45/M
5 Teresa Wood Roseville MI 29 69 55:17.8 8:55/M
6 Kimberly Craigo Harper Woods MI 28 76 56:14.4 9:04/M
7 Rachel Diperna Madison Heights MI 25 79 56:33.9 9:07/M
8 Kristine Rathke Troy MI 26 84 57:59.7 9:21/M
9 Christina Deangelis Center Line MI 26 94 59:26.4 9:35/M
10 Rachel Banados Sterling Heights MI 28 112 1:01:19.5 9:53/M
11 Brooke Harms Sterling Heights MI 25 131 1:04:55.7 10:28/M
12 Montana Green Clinton Township MI 28 160 1:12:41.4 11:43/M
13 Sarah Lauinger Roseville MI 29 168 1:20:26.7 12:58/M
14 Karrie Charbonneau Utica MI 29 169 1:20:26.9 12:58/M

Female 30 to 34

Place Name City Age Overall Time Pace
1 Danielle Savard Rochester MI 30 4 41:10.1 6:38/M
2 Stephanie Smith Detroit MI 31 6 41:54.6 6:45/M
3 Danielle Fouler Avoca MI 33 9 43:09.5 6:58/M
4 Karry Brook Grosse Pte Wds MI 32 18 48:24.1 7:48/M
5 Kelly Craigo Harper Woods MI 31 27 50:35.6 8:10/M
6 Tina Curylo Harrison Twp MI 30 34 52:01.7 8:23/M
7 Angela Bunch Warren MI 34 38 52:26.0 8:27/M
8 Sarah Schilkay Macomb MI 32 39 52:26.0 8:27/M
9 Gail Mira Fraser MI 34 41 53:11.5 8:35/M
10 Christine Pihlaja Washington MI 33 44 53:42.2 8:40/M
11 Shannon Jordan Marysville OH 32 48 54:13.5 8:45/M
12 Kristy Burgess Dearborn MI 33 49 54:13.8 8:45/M
13 Stacia Buchanan Lansing MI 34 58 54:37.0 8:49/M
14 Cortney Higgins Washington DC 33 63 54:45.3 8:50/M
15 Allison Harris Detroit MI 32 68 55:11.1 8:54/M
16 Rachel Capaldi Richmond MI 31 73 55:49.9 9:00/M
17 Melissa Otto Harrison Twp MI 33 85 58:00.3 9:21/M
18 Beth Pretzer Clinton Township MI 30 99 1:00:06.9 9:42/M
19 Senny Lee Utica MI 30 110 1:00:55.0 9:50/M
20 Morgan Derouin New Baltimore MI 31 111 1:01:19.0 9:53/M
21 Stacy Skaltsounis Warren MI 34 116 1:02:23.6 10:04/M
22 Alicia Young Fairhaven MI 33 127 1:03:54.8 10:18/M
23 Melissa Vanhollebeke Clinton Township MI 34 128 1:04:03.0 10:20/M
24 Biancca Ruehle Harrison Twp MI 32 139 1:06:08.0 10:40/M
25 Caitrina Slavey Roseville MI 32 143 1:07:43.3 10:55/M
26 Nicole Nelson Macomb Township MI 32 144 1:07:44.5 10:55/M
27 Julie Wettlaufer Marine City MI 32 155 1:10:56.6 11:26/M
28 Leann Otto Sterling Heights MI 30 158 1:11:54.5 11:36/M
29 Kelly May Saint Clair Shores MI 33 161 1:13:43.4 11:53/M
30 Amy Luce Mount Clemens MI 33 163 1:16:35.0 12:21/M
31 Tabitha Norris Saint Clair Shores MI 32 170 1:21:32.7 13:09/M

Female 35 to 39

Place Name City Age Overall Time Pace
1 Brandy Chiseenti Berkley MI 36 14 46:01.8 7:25/M
2 Holly Minjoe Mount Clemens MI 38 22 50:04.7 8:05/M
3 Amy Anikewich Fraser MI 35 26 50:30.5 8:09/M
4 Carmela Komisarz New Baltimore MI 37 29 50:40.8 8:10/M
5 Erica Miller Roseville MI 38 43 53:21.8 8:36/M
6 Jillian Smith Memphis MI 35 51 54:14.6 8:45/M
7 Janine Rinna Richmond MI 36 56 54:31.4 8:48/M
8 Tiffany Lewis Oak Park MI 38 64 54:51.9 8:51/M
9 Erin Myers New Baltimore MI 36 65 55:08.1 8:54/M
10 Rachel Mayer Roseville MI 39 66 55:09.3 8:54/M
11 Jennifer Behnke Novi MI 37 86 58:35.2 9:27/M
12 Heather Nucci Royal Oak MI 35 88 58:42.1 9:28/M
13 Christie Holton St. Clair Shores MI 39 89 58:51.0 9:30/M
14 Christie Kleinedler Sterling Heights MI 38 93 59:25.5 9:35/M
15 Stacy Cerget Rochester MI 35 100 1:00:07.7 9:42/M
16 Jayme Strehlke Royal Oak MI 35 101 1:00:11.1 9:42/M
17 Shannon Rogers Clinton Township MI 37 105 1:00:29.6 9:45/M
18 Amy Latka Macomb MI 36 109 1:00:53.6 9:49/M
19 Sandy Bailey Commerce 37 113 1:01:35.7 9:56/M
20 Jennifer Richmond Washington MI 38 114 1:01:59.9 10:00/M
21 Candy Vasser St. Clair Shores MI 36 123 1:03:29.6 10:14/M
22 Carolyn Korte St. Clair Shores MI 39 125 1:03:45.3 10:17/M
23 Rebecca Slivenski New Baltimore MI 35 126 1:03:53.4 10:18/M
24 Tiffany Pomaville Macomb MI 36 141 1:06:58.3 10:48/M
25 Melody Read Harrison Twp MI 39 142 1:07:29.0 10:53/M
26 Patti Pertile Macomb Township MI 39 154 1:10:21.3 11:21/M
27 Holly Shier Royal Oak MI 38 156 1:11:11.4 11:29/M
28 Janet Kubiak Eastpointe MI 37 159 1:12:29.9 11:41/M
29 Lisa Funke Roseville MI 37 171 1:21:51.2 13:12/M
30 Julie Isrow New Haven MI 39 173 1:23:24.3 13:27/M

Female 40 to 44

Place Name City Age Overall Time Pace
1 Kimberly Kalmar Grosse Pointe MI 43 21 49:50.4 8:02/M
2 Heather Hall Washington MI 42 36 52:11.6 8:25/M
3 Denise Dashner Temperance MI 42 53 54:20.6 8:46/M
4 Colleen O'Connor-worden Grosse Pte Wds MI 44 57 54:31.6 8:48/M
5 Andra Bournias Grosse Pte Wds MI 41 59 54:40.4 8:49/M
6 Susanne Mooney Warren, MI 44 67 55:10.0 8:54/M
7 Bridget Whitican Emmett MI 41 70 55:19.8 8:55/M
8 Amy Paulson Fraser MI 40 74 56:02.9 9:02/M
9 Lisa Papista Grosse Pte Wds MI 41 75 56:03.5 9:02/M
10 Diane Payne Ada MI 41 83 57:08.0 9:13/M
11 Hope Kirsch Casco MI 42 95 59:36.8 9:37/M
12 Jolyn Prater Liberty MO 44 96 59:39.5 9:37/M
13 Lynda Miller Clinton Twp MI 41 97 59:58.5 9:40/M
14 Kimberly Laforest Clinton Township MI 43 104 1:00:15.0 9:43/M
15 Julie Godin Clinton Township MI 41 118 1:03:00.9 10:10/M
16 Sherri Kotelniski Roseville MI 40 119 1:03:09.3 10:11/M
17 Lori Noyer Lansing MI 40 124 1:03:30.1 10:15/M
18 Sefe Puente Royal Oak MI 42 129 1:04:06.2 10:20/M
19 Kelly Reed Livonia MI 42 135 1:05:25.8 10:33/M
20 Laurie Houle Warren MI 43 140 1:06:29.5 10:43/M
21 Joy Passatta-Chojnacki Roseville MI 40 162 1:14:26.7 12:00/M
22 Rhonda Lehr Mount Morris MI 41 167 1:19:03.6 12:45/M
23 Kathy Zalewski Sterling Heights MI 42 175 1:30:36.7 14:37/M

Female 45 to 49

Place Name City Age Overall Time Pace
1 Sharon Mulligan-Cooke Sterling Heights MI 47 16 46:28.5 7:30/M
2 Kami Ross Macomb MI 45 17 47:49.4 7:43/M
3 Kathleen Erz St. Clair Shores MI 47 28 50:40.5 8:10/M
4 Rebecca Hendren Roseville MI 47 31 51:27.7 8:18/M
5 Cindy Michaels Columbus MI 45 52 54:19.2 8:46/M
6 Roseann Schihl New Baltimore MI 45 81 56:38.0 9:08/M
7 Tammy Hudolin Macomb MI 46 87 58:39.3 9:28/M
8 Deborah Rymut Cherterfield MI 48 90 58:58.6 9:31/M
9 Maryl Lefevre St. Clair Shores MI 47 102 1:00:12.5 9:43/M
10 Kelly Barnowske St. Clair Shores MI 47 107 1:00:40.0 9:47/M
11 Michele Miller Troy MI 45 108 1:00:52.6 9:49/M
12 Kristen Hinkley Saline MI 46 122 1:03:22.8 10:13/M
13 Patricia Hurley Clinton Twp MI 49 147 1:08:04.1 10:59/M
14 Jaqueline Brown Washington MI 47 149 1:08:32.4 11:03/M
15 Lori Burleson Ferndale MI 48 151 1:09:19.7 11:11/M
16 Jeri Grigg Saint Clair Shores MI 45 152 1:09:29.2 11:12/M
17 Richelle Jones Detroit MI 46 172 1:22:50.9 13:22/M

Female 50 to 54

Place Name City Age Overall Time Pace
1 Kristin Pitcairn Rochester MI 52 45 54:00.9 8:43/M
2 Monica Borkowski Warren MI 53 55 54:23.6 8:46/M
3 Sharon Smith Algonac MI 54 61 54:44.4 8:50/M
4 Mary Quandt Port Huron MI 52 77 56:14.4 9:04/M
5 Marjorie Monahan Richmond MI 53 92 59:24.0 9:35/M
6 Patricia Bekowies Grosse Pointe MI 51 120 1:03:12.1 10:12/M
7 Kyoko Hayashi Wixom MI 51 136 1:05:26.6 10:33/M
8 Cheryl Munday Fair Haven MI 51 146 1:07:56.3 10:57/M
9 Donna Sutherland Macomb Township MI 51 150 1:08:46.6 11:05/M

Female 55 to 59

Place Name City Age Overall Time Pace
1 Kathleen Clark Fraser MI 55 32 51:44.9 8:21/M
2 Joan McDonald New Baltimore MI 59 33 51:58.1 8:23/M
3 Sandy Freund Macomb MI 55 47 54:08.4 8:44/M
4 Glenda Card Oak Park MI 57 71 55:32.8 8:57/M
5 Martha Childs Troy MI 57 80 56:36.9 9:08/M
6 Virginia Locke St. Clair Shores MI 57 82 56:55.2 9:11/M
7 Carole Backman Grosse Pte Wds MI 57 98 1:00:05.5 9:41/M
8 Carol Switalski Grosse Pointe MI 58 106 1:00:36.6 9:46/M
9 Jayne P. Baker Berkley MI 55 117 1:02:41.0 10:07/M
10 Deb Mally Grosse Pte Wds MI 58 133 1:05:06.7 10:30/M
11 Karen Steitz 57 137 1:05:28.7 10:34/M
12 Elaine Slomsky Livonia MI 58 148 1:08:20.8 11:01/M
13 Karen Salvatore Sterling Heights MI 55 153 1:09:32.3 11:13/M
14 Diana Easthope Harrison Twp MI 56 157 1:11:11.4 11:29/M
15 Concetta Pellerito Richmond MI 57 166 1:18:34.8 12:40/M
16 Suzanne Hentschel Harrison Twp MI 55 174 1:27:35.5 14:08/M

Female 60 to 64

Place Name City Age Overall Time Pace
1 Maggy Zidar Pontiac MI 62 42 53:21.0 8:36/M
2 Alex Sprowitz Utica MI 60 54 54:21.9 8:46/M
3 Lawrena John Grosse Pointe Park MI 61 60 54:42.2 8:49/M
4 Bonnie Moroni Clinton Twp MI 60 91 59:15.7 9:33/M
5 Margaret De Koyer-Watson Port Huron MI 62 176 1:37:53.0 15:47/M

Female 70 to 74

Place Name City Age Overall Time Pace
1 Ellen Nitz Brighton MI 72 103 1:00:14.1 9:43/M

Overall Male Open Winners

Place Name City Age Overall Time Pace
1 Ethan Shaw Rochester MI 22 1 30:19.3 4:53/M

Overall Male Master Winners

Place Name City Age Overall Time Pace
1 Joel Kozlowski Macomb Township MI 41 9 37:00.9 5:58/M

Male 14 and under

Place Name City Age Overall Time Pace
1 Tristan Sparks Roseville MI 14 76 48:49.2 7:52/M
2 Joseph Manfroda Roseville MI 14 194 1:01:37.5 9:56/M

Male 15 to 19

Place Name City Age Overall Time Pace
1 Eddie Komph New Baltimore MI 19 5 35:15.9 5:41/M
2 Timmy Martin St. Clair Shores MI 16 8 36:50.6 5:56/M
3 Aaron Robert Warren MI 15 18 40:58.7 6:36/M
4 Randy Greet Roseville MI 18 24 41:49.6 6:45/M
5 Alec Butler New Baltimore MI 18 25 42:10.7 6:48/M
6 Mathhew Grawburg Warren MI 15 30 42:39.3 6:53/M
7 Mark Reimann Troy MI 15 36 43:56.5 7:05/M
8 Drake Sluchak Roseville MI 16 55 46:43.0 7:32/M
9 Sean Uhl Roseville MI 16 61 47:20.8 7:38/M
10 Sean Heacox Roseville MI 15 67 47:46.1 7:42/M
11 Chad Radford Roseville MI 16 102 52:09.8 8:25/M

Male 20 to 24

Place Name City Age Overall Time Pace
1 Brendan Martin Rochester MI 23 4 30:51.9 4:59/M
2 Tim Kelly Clinton Township MI 21 7 36:25.9 5:52/M
3 Nickolas Jennings Ann Arbor MI 21 17 40:52.3 6:35/M
4 David Hendren Roseville MI 20 49 45:46.4 7:23/M
5 Michael Fisher Roseville MI 22 56 46:44.3 7:32/M
6 Joshua Nahorodny Roseville MI 21 141 54:55.5 8:51/M
7 Philip Whitman Farmington MI 24 147 55:38.4 8:58/M
8 Daryl Nahorodny Roseville MI 22 190 1:00:58.5 9:50/M

Male 25 to 29

Place Name City Age Overall Time Pace
1 Robert Scriebner Rochester MI 26 2 30:19.5 4:53/M
2 Chris Elsey Milford MI 26 6 35:40.1 5:45/M
3 William Gerstenberger Roseville MI 25 14 39:42.0 6:24/M
4 Eric Backman Grosse Pte Wds MI 26 15 40:26.5 6:31/M
5 Alex Williams Caro MI 28 23 41:30.8 6:42/M
6 Barandon Richards Roseville MI 25 46 45:07.5 7:17/M
7 Michael Peterson St. Clair Shores MI 26 52 46:21.2 7:29/M
8 Gregg Tomsha Sterling Heights MI 27 54 46:33.0 7:30/M
9 Marco Weisbecker Bad Orb, Germany 25 58 46:52.8 7:34/M
10 Ryan Shain Utica MI 27 62 47:24.6 7:39/M
11 Justin Caine Lansing MI 29 156 57:15.1 9:14/M
12 William Ripayi Roseville MI 29 168 58:46.2 9:29/M
13 L.m. Hintz Novi MI 29 177 59:52.0 9:39/M
14 Jerry Jr. Carter Roseville MI 25 185 1:00:16.3 9:43/M
15 Steven Carter Roseville MI 26 186 1:00:16.6 9:43/M
16 Vince Pulis Warren MI 29 195 1:01:38.9 9:56/M
17 Steven Rogers New Baltimore MI 29 202 1:02:48.3 10:08/M

Male 30 to 34

Place Name City Age Overall Time Pace
1 Mike Morgan Rochester MI 32 3 30:35.0 4:56/M
2 Chris Barber Grosse Pte Wds MI 34 13 39:30.3 6:22/M
3 Vince Rogers Roseville MI 31 29 42:39.2 6:53/M
4 Steven Sparks Roseville MI 31 32 43:05.5 6:57/M
5 Denny Savard Rochester MI 32 34 43:34.1 7:02/M
6 Patrick Rich Armada MI 32 38 44:09.8 7:07/M
7 Tad Hill Livonia MI 34 75 48:40.2 7:51/M
8 Casey Hogan Saint Clair Shores MI 31 86 49:59.2 8:04/M
9 Eric Noyes Franklin MI 33 97 51:38.0 8:20/M
10 Ernest Cranston Eastpointe MI 33 100 52:02.0 8:24/M
11 Ryan Drake Fort Gratiot MI 34 132 54:21.8 8:46/M
12 Tyrese West Detroit MI 34 140 54:51.8 8:51/M
13 Sean Hendrick Royal Oak MI 30 151 56:09.9 9:03/M
14 Matthew Wilson Saint Clair Shores MI 30 155 57:04.8 9:12/M
15 James Liegghio Washington MI 34 160 57:57.1 9:21/M
16 Nick Malbury Saint Clair MI 31 165 58:34.1 9:27/M
17 Matthew Lyons Roseville MI 32 167 58:44.6 9:28/M
18 Ryan Knoll Fraser MI 33 208 1:03:33.2 10:15/M

Male 35 to 39

Place Name City Age Overall Time Pace
1 Matt Sikora Harper Woods MI 39 10 37:48.9 6:06/M
2 Edward Kerr Clinton Township MI 35 12 38:39.5 6:14/M
3 Brian Cooper St. Clair Shores MI 35 27 42:25.2 6:50/M
4 Brian Surma Royal Oak MI 36 57 46:48.3 7:33/M
5 Ron Anikewich Fraser MI 38 70 48:05.1 7:45/M
6 Todd Nucci Royal Oak MI 35 94 51:26.9 8:18/M
7 Jeff Conway Dearborn MI 37 98 51:51.0 8:22/M
8 Daniel Day Fraser MI 35 105 52:20.2 8:26/M
9 Brian Dexter Warren MI 38 107 52:23.7 8:27/M
10 Jason Hoepner New Baltimore MI 35 119 53:36.0 8:39/M
11 Andrew Berger Roseville MI 35 120 53:37.3 8:39/M
12 Jason Holton St. Clair Shores MI 39 131 54:18.9 8:45/M
13 John Buchanan Lansing MI 36 135 54:32.3 8:48/M
14 Mike Bloomfield Port Huron MI 36 166 58:37.6 9:27/M
15 Chris Reilly Roseville MI 38 192 1:01:12.4 9:52/M
16 Michael Shivas Roseville MI 38 193 1:01:25.0 9:54/M
17 Dave Hallison Macomb Township MI 39 196 1:01:41.0 9:57/M
18 Jason Richmond Washington MI 39 197 1:02:00.3 10:00/M
19 Phil Vanhollebeke Clinton Township MI 35 211 1:04:02.9 10:20/M
20 Brian Danielson Roseville MI 35 218 1:07:43.6 10:55/M
21 Peter Minjoe Mount Clemens MI 39 225 1:11:04.1 11:28/M
22 Jason Jones Saint Clair Shores MI 35 229 1:13:43.5 11:53/M
23 Jay Rosbrouh Grand Blanc MI 36 235 1:21:38.4 13:10/M

Male 40 to 44

Place Name City Age Overall Time Pace
1 Steve Menovcik Grand Ledge MI 44 11 38:02.6 6:08/M
2 Jim Szymanski Shelby Township MI 40 21 41:11.6 6:39/M
3 Loren Miller Macomb MI 43 22 41:22.0 6:40/M
4 Dean Corrion Grosse Point Park 42 26 42:19.0 6:50/M
5 Jack Pertile Macomb Township MI 40 35 43:53.8 7:05/M
6 Walter Kotelnisla Roseville MI 41 37 44:05.7 7:07/M
7 Marcus Colonna Hamtramck MI 42 43 44:46.8 7:13/M
8 Eric Bartel Saint Clair Shores MI 44 65 47:42.1 7:42/M
9 David Grigg Saint Clair Shores MI 42 69 47:55.0 7:44/M
10 Todd Mitchell St. Clair Shores MI 44 71 48:07.8 7:46/M
11 Michael Charow St. Clair Shores MI 44 73 48:14.7 7:47/M
12 Joe Baldwin Utica MI 41 83 49:28.4 7:59/M
13 Bill Childress Roseville MI 42 91 51:13.1 8:16/M
14 Scott Corless Royal Oak MI 44 109 52:31.8 8:28/M
15 John Patton Roseville MI 44 116 53:22.6 8:36/M
16 Chris Mira Fraser MI 40 117 53:25.7 8:37/M
17 Scott Courtney Troy MI 41 124 53:44.9 8:40/M
18 Gordon Ford St. Clair Shores MI 44 134 54:31.9 8:48/M
19 Jim Tatti Sterling Heights MI 40 144 55:25.6 8:56/M
20 John Lauchlan Harrison Twp MI 41 153 56:29.0 9:07/M
21 Todd Grant Clinton Township MI 41 182 1:00:02.0 9:41/M
22 Jerome Sawyer Roseville MI 44 207 1:03:28.6 10:14/M
23 Ronnie Cyrus New Hudson MI 41 238 1:30:37.0 14:37/M

Male 45 to 49

Place Name City Age Overall Time Pace
1 Brian Boutell Grosse Pte Wds MI 47 20 41:05.9 6:38/M
2 Kevin Bentley Farmington MI 48 33 43:34.0 7:02/M
3 Tom Goulette Armada MI 47 39 44:15.2 7:08/M
4 Lance Lange Royal Oak 47 40 44:18.3 7:09/M
5 Jim Oleksinski Grosse Pte Wds MI 45 42 44:30.2 7:11/M
6 Jeff Roman Fenton MI 45 44 44:55.2 7:15/M
7 Steven Martin Warren 46 45 44:58.4 7:15/M
8 Mike Marlow Livonia MI 49 48 45:30.1 7:20/M
9 Patrick Murphy St. Clair Shores MI 47 50 45:53.0 7:24/M
10 Shawn Whippler Roseville MI 49 53 46:29.9 7:30/M
11 Paul Bauinger New Baltimore MI 49 59 46:53.8 7:34/M
12 Bill Spurrier Macomb MI 46 60 46:58.7 7:35/M
13 Brian Doyle Roseville MI 45 63 47:28.9 7:39/M
14 Karl Hauser Monroe MI 47 72 48:12.1 7:46/M
15 Jon Grommons Sterling Heights MI 45 87 50:00.6 8:04/M
16 Matt Reimann Troy MI 49 89 50:46.8 8:11/M
17 Bruce Wilberding Troy MI 49 90 51:04.0 8:14/M
18 Ronald Hiestand Mount Clemens MI 49 93 51:21.0 8:17/M
19 Andy Race Royal Oak 45 99 51:57.2 8:23/M
20 Gregory Whitican Emmett MI 48 104 52:14.5 8:25/M
21 Dave Clulo Sterling Heights MI 45 108 52:26.0 8:27/M
22 Tony Payne Ada MI 48 110 52:45.0 8:30/M
23 Jim Zittel Waterford MI 49 112 52:47.8 8:31/M
24 Richard Filar Lapeer MI 47 113 52:56.8 8:32/M
25 Mark Behnke St. Clair Shores MI 45 162 57:59.6 9:21/M
26 John Eudns New Baltimore MI 45 170 59:05.0 9:32/M
27 Joseph B. Hurley Clinton Twp MI 49 181 59:58.8 9:40/M
28 Kenneth Laforest Clinton Township MI 47 184 1:00:14.5 9:43/M
29 Mike Lombard New Baltimore MI 46 187 1:00:20.3 9:44/M
30 Geoffrey Fecteau Clinton Township MI 48 189 1:00:48.1 9:48/M
31 Tom Tocco Macomb MI 46 221 1:08:20.9 11:01/M
32 Jon Szot Roseville MI 46 222 1:10:03.0 11:18/M
33 Peter Hedemark Harper Woods MI 46 234 1:19:25.9 12:49/M

Male 50 to 54

Place Name City Age Overall Time Pace
1 Lee Hunt Canton MI 51 16 40:31.8 6:32/M
2 Norman Klonowski Warren, MI 50 51 46:13.2 7:27/M
3 Chris Giannetti St. Clair Shores MI 53 66 47:45.0 7:42/M
4 Terry Nanarre Trenton MI 51 74 48:18.0 7:47/M
5 Mark Lefevre St. Clair Shores MI 51 79 49:11.0 7:56/M
6 Kenneth Korejwo Grosse Pointe MI 50 80 49:13.2 7:56/M
7 Michael Pangori Grosse Pointe MI 50 84 49:37.0 8:00/M
8 Michael Smith Hamtramck MI 54 92 51:20.4 8:17/M
9 Dave Mann Detroit MI 51 111 52:45.3 8:30/M
10 Joe Terranova Lake Orion MI 54 118 53:31.6 8:38/M
11 Matt Makowski Roseville MI 53 121 53:37.8 8:39/M
12 Dave Figurski Sterling Heights MI 52 123 53:44.2 8:40/M
13 Chip Thornton Detroit MI 52 125 54:02.4 8:43/M
14 Steven Niss Troy MI 54 133 54:29.8 8:47/M
15 Domingo Valadez Temperance MI 53 136 54:35.2 8:48/M
16 Greg Chmielewski Memphis MI 53 142 55:01.0 8:52/M
17 Kurt Schneider Harper Woods MI 53 143 55:21.0 8:56/M
18 Brian Johnson Roseville MI 53 145 55:27.8 8:57/M
19 Greg Gilpin Grosse Pte Wds MI 51 150 55:59.5 9:02/M
20 Robert Roy Rochester MI 51 152 56:16.9 9:05/M
21 Bob Riesterer Commerce Township MI 54 172 59:12.1 9:33/M
22 Richard Harms Sterling Heights MI 54 175 59:41.1 9:38/M
23 Jerry Rogers Clinton Township MI 53 176 59:49.3 9:39/M
24 James Peabody Grosse Pointe MI 54 180 59:57.6 9:40/M
25 Thomas Shimmel Grosse Pointe MI 50 203 1:02:51.3 10:08/M
26 Steven Ostrovich Dexter MI 50 206 1:03:07.9 10:11/M
27 Mark Ignasiak Troy MI 53 216 1:07:36.4 10:54/M
28 Kevin MacFarland Mount Clemens MI 53 227 1:12:24.4 11:41/M
29 Karl Tebeau Utica MI 52 232 1:17:14.0 12:27/M

Male 55 to 59

Place Name City Age Overall Time Pace
1 John Tarkowski Northville MI 59 19 41:03.3 6:37/M
2 Joe Lasher Smiths Creek MI 55 41 44:28.4 7:10/M
3 Michael Markie Roseville MI 57 77 48:51.1 7:53/M
4 Ken Butley New Baltimore MI 58 78 49:01.0 7:54/M
5 Wilhelmus Van Vianen Sterling Heights MI 59 81 49:20.7 7:57/M
6 Jim Everlove Troy MI 58 88 50:23.3 8:08/M
7 Steve Spalding Waterford MI 57 95 51:28.4 8:18/M
8 Robin Pearce New Hudson MI 59 101 52:05.5 8:24/M
9 Tim Cardy St. Clair Shores MI 55 106 52:21.0 8:27/M
10 Scott Handley Grosse Pointe MI 56 115 53:20.0 8:36/M
11 Daniel Tradii New Baltimore MI 56 126 54:09.1 8:44/M
12 Pete Buccos Marysville MI 55 130 54:16.7 8:45/M
13 Donald Theodore Royal Oak MI 59 146 55:29.5 8:57/M
14 Jeffrey Lyijnen Sterling Heights MI 56 148 55:44.0 8:59/M
15 Peter Mianecki Macomb MI 58 149 55:48.6 9:00/M
16 Anthony Piccirilli Macomb MI 58 161 57:57.2 9:21/M
17 David Zatkoff Bloomfield Hills MI 55 163 58:21.0 9:25/M
18 Jacob Priaulx Armada MI 57 164 58:26.6 9:25/M
19 Mike Deliso Utica MI 56 173 59:19.9 9:34/M
20 Rick Moroni Clinton Twp MI 59 178 59:53.0 9:40/M
21 Michael Garr Rockwood MI 55 200 1:02:35.2 10:06/M
22 Jon Hayes Richmond MI 58 212 1:04:41.1 10:26/M
23 Sunao Hayashi Wixom MI 57 214 1:05:26.3 10:33/M
24 Stephen Sandler Royal Oak MI 56 230 1:14:31.0 12:01/M
25 Mark Maisonneuve Eastpointe MI 56 233 1:17:14.3 12:27/M

Male 60 to 64

Place Name City Age Overall Time Pace
1 Bruce Seguin Harrison Twp MI 61 28 42:36.8 6:52/M
2 James O'Brien Bloomfield Hills MI 60 31 42:48.0 6:54/M
3 Gary Cummis Auburn Hills MI 61 47 45:09.4 7:17/M
4 Martin Kraft Rochester Hills MI 64 68 47:48.4 7:43/M
5 Joseph Grzankowski Warren, MI 62 82 49:22.6 7:58/M
6 Paul Repeck Warren 60 85 49:43.9 8:01/M
7 Ron Marinucci Commerce Township MI 63 103 52:11.6 8:25/M
8 Marty Povirk Franklin MI 64 114 53:08.8 8:34/M
9 William Wiitala Hamtramck MI 61 122 53:40.2 8:39/M
10 Bill Garrity Ann Arbor MI 64 129 54:12.4 8:45/M
11 James Beale Royal Oak 61 137 54:37.4 8:49/M
12 Bruce Freeburger Roseville MI 61 154 56:35.2 9:08/M
13 Dale Chinneck Macomb MI 62 169 58:49.7 9:29/M
14 Michael Stieber St. Clair Shores MI 62 179 59:56.2 9:40/M
15 Ronald E. Robinson Clinton Twp MI 63 188 1:00:45.2 9:48/M
16 Larry Niss West Bloomfield MI 60 191 1:01:05.0 9:51/M
17 Jim Weiss Fair Haven MI 60 199 1:02:29.8 10:05/M
18 Ernie Coil Macomb MI 60 205 1:03:04.5 10:10/M
19 Ronald Krusinski Roseville MI 63 209 1:03:40.0 10:16/M
20 Daniel Balon Washington MI 63 210 1:03:42.0 10:16/M
21 Geoff Sutherland London, Ontario 61 215 1:06:11.3 10:40/M
22 Tom Ches Mount Clemens MI 63 219 1:08:03.0 10:59/M
23 Carl Budde Roseville MI 64 224 1:10:38.1 11:24/M

Male 65 to 69

Place Name City Age Overall Time Pace
1 David Rau Gagetown MI 66 64 47:32.4 7:40/M
2 Dennis C. Scott Toledo OH 69 96 51:34.2 8:19/M
3 Wayne Hanlon Rochester Hills MI 66 127 54:10.3 8:44/M
4 Jim Kruse Port Huron MI 69 128 54:12.3 8:45/M
5 Doug Gordon Rochester Hills MI 66 138 54:46.9 8:50/M
6 Jerry Mittman Northville MI 68 139 54:48.5 8:50/M
7 John McSorley Grosse Pointe MI 65 183 1:00:12.9 9:43/M
8 William Kalmar Lake Orion MI 69 198 1:02:18.8 10:03/M
9 Mike Cherry Grosse Pte Wds MI 69 201 1:02:39.4 10:06/M
10 William Klinkhamer Birmingham MI 66 204 1:03:02.6 10:10/M
11 William Allen Royal Oak MI 66 228 1:13:23.4 11:50/M

Male 70 to 74

Place Name City Age Overall Time Pace
1 Richard Litzler Bloomfield Hills MI 73 157 57:16.1 9:14/M
2 Sam Lafata New York NY 73 217 1:07:38.4 10:55/M
3 Tom Killop Macomb Township MI 72 220 1:08:18.1 11:01/M
4 Hong Cook Grosse Pte Wds MI 73 236 1:24:19.1 13:36/M

Male 75 to 79

Place Name City Age Overall Time Pace
1 Steffen G. Kampe St. Thomas, Ontario 75 159 57:39.2 9:18/M
2 Douglas Elgie Rochester Hills MI 78 171 59:08.5 9:32/M
3 David Lee Grosse Ile MI 75 174 59:40.4 9:37/M
4 Larry Mishler Plymouth MI 75 213 1:05:07.1 10:30/M
5 Jerry Valka St. Clair Shores MI 75 226 1:11:41.2 11:34/M
6 Marvin Stevenson Rochester Hills MI 77 237 1:28:28.1 14:16/M
7 Darrell McKee Harrison Twp MI 78 239 1:32:38.0 14:56/M

Male 80 and over

Place Name City Age Overall Time Pace
1 Bill Olsen Warren 80 158 57:20.9 9:15/M
2 Manuel Teodoro London, Ontario 84 223 1:10:06.7 11:18/M
3 Fred Hagen Birmingham MI 83 231 1:16:02.7 12:16/M



4K
Overall Female 14 And Under Winners

Place Name City Age Overall Time Pace
1 Allison Shannon Sterling Heights MI 14 1 14:53.6 5:57/M
2 Katie Fedoronko Ann Arbor MI 14 5 16:55.1 6:46/M
3 Mckenna Gray Sterling Heights MI 14 7 17:11.4 6:52/M
4 Abby Jenkins Sterling Heights MI 9 15 20:11.0 8:04/M
5 Lily Schmidt Shelby Township MI 14 19 21:15.0 8:30/M

Overall Female 15 And Older Winners

Place Name City Age Overall Time Pace
1 Gabriella Ovesen Clinton Twp. MI 17 2 15:53.5 6:21/M
2 Ella Willias Detroit MI 55 3 16:43.4 6:41/M
3 Veronica Alatorre St. Clair Shores MI 44 4 16:46.9 6:42/M
4 Kenne Lewis Sterling Heights MI 15 6 17:00.7 6:48/M
5 Kristine Zalupski Commerce Township MI 41 8 18:03.4 7:13/M

Female 14 and under

Place Name City Age Overall Time Pace
1 Maggie Strayer Roseville MI 14 25 21:41.6 8:40/M
2 Alyssa Sutterfield Roseville MI 9 31 22:18.7 8:55/M
3 Clara Schmidt Shelby Township MI 10 33 22:32.1 9:01/M
4 Katelynn Terman Fraser MI 12 40 22:57.0 9:11/M
5 Abby Kanakry St. Clair Shores MI 12 43 23:34.2 9:26/M
6 Rachel Harris Grosse Pte Wds MI 13 46 23:39.5 9:28/M
7 Hailey Mattar Clinton Township MI 12 47 23:43.6 9:29/M
8 Cailin Empson Grosse Pte Wds MI 10 48 23:51.0 9:32/M
9 Grace Lange Grosse Pte Wds MI 9 55 24:15.9 9:42/M
10 Kennedy Kullman Utica MI 9 56 24:16.1 9:42/M
11 Emily Plouff Fraser MI 8 59 24:46.7 9:54/M
12 Emily Kanakry St. Clair Shores MI 14 72 25:12.7 10:05/M
13 Allyson Szymanski Shelby Township MI 8 103 28:09.7 11:16/M
14 Carly Irwin Utica MI 8 104 28:18.4 11:19/M
15 Abigail Rannow Utica MI 10 105 28:18.5 11:19/M
16 Rebecca Overman Fraser MI 14 117 29:16.2 11:42/M
17 Alexis Sharplin Utica MI 9 126 30:25.9 12:10/M
18 Celine Matway Utica MI 10 131 31:25.0 12:34/M
19 Kelly Morck Shelby Twp. MI 10 132 31:26.1 12:34/M
20 Isabella Cole Utica MI 10 136 31:53.1 12:45/M
21 Ashley Pokorski St. Clair Shores MI 12 144 32:37.6 13:03/M

Female 15 and over

Place Name City Age Overall Time Pace
1 Sarah Waldrip Sterling Heights MI 16 9 18:19.6 7:20/M
2 Eleni Haralampopoulos Roseville MI 16 10 18:41.3 7:28/M
3 Terri Miller Saint Clair MI 43 11 18:50.2 7:32/M
4 Jeanette Martin St. Clair Shores MI 48 12 19:30.0 7:48/M
5 Libby Mathias Grosse Pte Wds MI 15 13 19:52.7 7:57/M
6 Joanne Johnson Roseville MI 26 14 19:52.9 7:57/M
7 Michelle Moore Brighton MI 44 16 20:36.9 8:14/M
8 Cecelia Goulette Armada MI 19 17 20:48.0 8:19/M
9 Nicole Empson Grosse Pte Wds MI 35 18 21:10.3 8:28/M
10 Lynda Ferguson St. Clair Shores MI 43 20 21:15.2 8:30/M
11 Pamela Lumetta Shelby Township MI 42 21 21:18.1 8:31/M
12 Lisa Beam Roseville MI 34 22 21:18.8 8:31/M
13 Patti Gullett Clinton Township MI 51 23 21:36.9 8:38/M
14 Marianne Boddington Roseville MI 50 24 21:41.0 8:40/M
15 Kristen Arnold Shelby Township MI 37 26 21:47.8 8:43/M
16 Mckensie Winn Trenton MI 15 27 21:52.3 8:45/M
17 Michelle Sowerby New Baltimore MI 47 28 22:00.4 8:48/M
18 Allison Barello Sterling Heights MI 29 29 22:07.3 8:51/M
19 Jaime Gnam Roseville MI 20 30 22:17.2 8:55/M
20 Nicole Maurin Roseville MI 36 32 22:19.1 8:56/M
21 Jessica Keown Roseville MI 28 34 22:33.1 9:01/M
22 Debi Raab Roseville MI 44 35 22:37.9 9:03/M
23 Anita McKinney Clinton Township MI 40 36 22:46.6 9:06/M
24 Susan Tuladziecki St. Clair Shores MI 33 37 22:49.4 9:08/M
25 Lisa Vander Putten Keego Harbor MI 28 38 22:50.0 9:08/M
26 Diane Zynel St. Clair Shores MI 53 39 22:56.0 9:10/M
27 Jennifer Whiteside Auburn Hills MI 26 41 22:57.3 9:11/M
28 Denise Schroeder Harrison Twp MI 53 42 23:31.5 9:24/M
29 Rebecca Thompson Warren MI 23 44 23:35.2 9:26/M
30 Janice Rey Grosse Pte Wds MI 51 45 23:36.0 9:26/M
31 Allison Koenigbauer Grosse Pte Wds MI 38 49 23:56.0 9:34/M
32 Amanda Gattine New Baltimore MI 32 50 23:56.7 9:34/M
33 Renee Niarhos Harrison Twp MI 36 51 23:58.0 9:35/M
34 Mary Melton Saint Clair Shores MI 35 52 23:58.0 9:35/M
35 Rebecca Gualdoni Grosse Pte Wds MI 44 53 24:02.7 9:37/M
36 Susan Murphy Roseville MI 42 54 24:03.8 9:37/M
37 Kayla Wilson Center Line MI 16 57 24:18.3 9:43/M
38 Julie Landt Roseville MI 33 58 24:25.2 9:46/M
39 Carrie Plouff Fraser MI 39 60 24:52.9 9:57/M
40 Charleen Filipiak Saint Clair Shores MI 48 61 24:54.3 9:58/M
41 Lenore Rowe Sterling Heights MI 40 62 24:55.2 9:58/M
42 Michelle Karpinski New Baltimore MI 24 63 24:58.3 9:59/M
43 Amy Campbell Roseville MI 42 64 24:58.4 9:59/M
44 Mary Zucchero Ypsilanti MI 38 65 25:03.5 10:01/M
45 Diane Glomski Warren MI 47 66 25:03.8 10:01/M
46 Christine M. O'Neil Roseville MI 57 67 25:05.3 10:02/M
47 Jeannette Allen Eastpointe MI 40 68 25:06.4 10:02/M
48 Cyndee Laura Roseville MI 32 69 25:09.2 10:04/M
49 Shelly Daywalt Grosse Pointe MI 49 70 25:10.3 10:04/M
50 Amanda Woody Harrison Twp MI 27 71 25:12.2 10:05/M
51 Sue Holston Armada MI 42 73 25:13.7 10:05/M
52 Kathy Clulo Sterling Heights MI 45 74 25:16.2 10:06/M
53 Rebecca Watkins St. Clair Shores MI 34 75 25:20.8 10:08/M
54 Sandra Hill Macomb Township MI 43 76 25:32.7 10:13/M
55 Amy Haller Macomb Township MI 41 77 25:35.5 10:14/M
56 Susanna Matulevich Belleville MI 43 78 25:37.7 10:15/M
57 Stephanie Gordon Madison Heights MI 16 79 25:40.5 10:16/M
58 Nicole Trubey Clinton Township MI 37 80 25:52.0 10:21/M
59 Renee A Martin Oconomowoc WI 45 81 25:54.3 10:22/M
60 Kelly Domenicucci Clinton Township MI 39 82 25:56.8 10:22/M
61 Virginia Adams Macomb Township MI 39 83 26:00.6 10:24/M
62 Paula Antio Macomb Township MI 47 84 26:01.3 10:24/M
63 Jamie Casier Sterling Heights MI 31 85 26:02.8 10:25/M
64 Karin Fecteau Clinton Township MI 47 86 26:04.8 10:26/M
65 Nancy Folk St. Clair Shores MI 55 87 26:24.2 10:34/M
66 Heather Rausch Roseville MI 33 88 26:25.7 10:34/M
67 Debbie Curylo Harrison Twp MI 59 89 26:30.3 10:36/M
68 Sabine Guyon St. Clair Shores MI 33 90 26:37.1 10:39/M
69 Tami Blaszkowski Sterling Heights MI 41 91 26:48.8 10:43/M
70 Meaghan Allen Roseville MI 15 92 26:52.0 10:45/M
71 Stacy Oliva Laingsburg MI 45 93 26:58.2 10:47/M
72 Stacy Sharp Roseville MI 36 94 27:01.9 10:48/M
73 Stacy A Wellman Fraser MI 29 95 27:20.4 10:56/M
74 Wendie Wood Hazel Park MI 41 96 27:23.5 10:57/M
75 Lindsay Arnold Clinton Township MI 34 97 27:34.4 11:02/M
76 Erika Tobin Utica MI 37 98 27:44.5 11:06/M
77 Marie Laura Roseville MI 30 99 27:51.0 11:08/M
78 Jessica Grant Sterling Heights MI 34 100 27:51.3 11:08/M
79 Lolita Harris Macomb Township MI 46 101 28:03.3 11:13/M
80 Jessica Jenei Roseville MI 22 102 28:07.8 11:15/M
81 Gail Starzynski Eastpointe MI 64 106 28:23.0 11:21/M
82 Deanna Jarema St. Clair Shores MI 32 107 28:44.1 11:30/M
83 Shelley Butler Roseville MI 49 108 28:48.2 11:31/M
84 Margo Schultz Clinton Township MI 56 109 28:54.4 11:34/M
85 Suzanne Deplancke Sterling Heights MI 51 110 28:54.6 11:34/M
86 Jill Ferris Sterling Heights MI 36 111 28:55.4 11:34/M
87 Heather Regier Macomb Township MI 35 112 29:03.2 11:37/M
88 Amelia McInnis Roseville MI 41 113 29:04.4 11:38/M
89 Teri Phillips Saint Clair Shores MI 74 114 29:04.8 11:38/M
90 Melissa Catlin Eastpointe MI 31 115 29:06.4 11:38/M
91 Lauren Gnam Roseville MI 23 116 29:06.5 11:38/M
92 Lauren Zajac St. Clair Shores 29 118 29:49.6 11:56/M
93 Coutney Geler Roseville MI 29 119 29:50.5 11:56/M
94 Provvidenza Lograsso Utica MI 43 120 29:57.8 11:59/M
95 Judy Dolmey Mount Clemens MI 39 121 30:02.8 12:01/M
96 Teresa Tomala Warren MI 34 122 30:10.6 12:04/M
97 Misty Cooper St. Clair Shores MI 34 123 30:16.2 12:06/M
98 Rhonda Shereda Macomb MI 38 124 30:16.7 12:06/M
99 Jennifer Simonetta Macomb Township MI 36 125 30:16.8 12:06/M
100 Katie Rogers Clinton Township MI 15 127 30:42.9 12:17/M
101 Teri Gnam Roseville MI 52 128 30:54.3 12:22/M
102 Diane Pokorski St. Clair Shores MI 40 129 31:12.4 12:29/M
103 Katy Lynn Rannow Utica MI 44 130 31:20.8 12:32/M
104 Erin Kilcline St. Clair Shores MI 33 133 31:49.6 12:44/M
105 Laurie Bonasso Grosse Pte Wds MI 39 134 31:51.4 12:44/M
106 Rachel Houston Utica MI 41 135 31:52.8 12:45/M
107 Carrie Evatz St. Clair Shores MI 35 137 32:05.5 12:50/M
108 Erica Meier Grosse Pte Wds MI 24 138 32:16.5 12:54/M
109 Patty Palermino St. Clair Shores MI 54 139 32:17.7 12:55/M
110 Kimberly Peraino Eastpointe MI 52 140 32:20.9 12:56/M
111 Robin Haworth Washington MI 56 141 32:21.8 12:56/M
112 Pattie Ormsbee Auburn Hills MI 66 142 32:23.5 12:57/M
113 Claudia Stroh Shelby Township MI 29 143 32:28.8 12:59/M
114 Erin Evatz Warren, MI 32 145 32:45.5 13:06/M
115 Sandra Studebaker Fraser MI 76 146 32:57.7 13:11/M
116 Cammie Kanakry St. Clair Shores MI 45 147 34:08.8 13:39/M
117 Susan Smiley Warren MI 53 148 35:23.0 14:09/M
118 Annie Chopp New Baltimore MI 32 149 36:21.3 14:32/M
119 Jeanne Simon Warren MI 63 150 36:32.0 14:37/M
120 Patricia Barker Clarkston MI 63 151 36:41.6 14:40/M
121 Chelsea Laforge Romeo MI 29 152 37:17.6 14:55/M
122 Cori Dworkin Sterling Heights MI 35 153 37:54.4 15:10/M
123 Rebecca Drzewieeki Utica MI 38 154 39:03.8 15:37/M
124 Susan Michalowski Northville MI 45 155 44:30.7 17:48/M

Overall Male 14 And Under Winners

Place Name City Age Overall Time Pace
1 Daniel Lamontagne Saint Clair MI 12 3 15:54.0 6:22/M
2 Ben Zalupski Commerce Township MI 14 4 16:12.5 6:29/M
3 Alexander Kalmar Grosse Pointe MI 13 7 17:07.8 6:51/M
4 Donis Harris III East China MI 12 12 17:29.5 7:00/M
5 Johnny Richards Roseville MI 14 16 18:05.8 7:14/M

Overall Male 15 And Older Winners

Place Name City Age Overall Time Pace
1 Maleek Thomas Roseville MI 16 1 14:44.6 5:54/M
2 Joseph Kalmar Grosse Pointe MI 15 2 15:42.0 6:17/M
3 Trevor Holston Armada MI 16 5 16:20.8 6:32/M
4 Samuel Hiestand Mount Clemens MI 16 6 16:51.6 6:44/M
5 Gino Bryja Warren MI 15 8 17:16.5 6:54/M

Male 14 and under

Place Name City Age Overall Time Pace
1 Brendan Sluchak Roseville MI 14 17 18:06.1 7:14/M
2 Brendan Shiemke Roseville MI 14 22 18:43.0 7:29/M
3 Sean Mitchell St. Clair Shores MI 14 26 19:17.0 7:43/M
4 Michael Lipinski Roseville MI 14 27 19:25.3 7:46/M
5 Dayton Kullman Utica MI 11 35 20:10.3 8:04/M
6 John Paul Messens Saint Clair Shores MI 13 53 21:47.8 8:43/M
7 David Gattine New Baltimore MI 0 59 22:18.3 8:55/M
8 Austin Barnett Roseville MI 7 61 22:25.1 8:58/M
9 Matthew Jeffrey Roseville MI 14 68 23:25.0 9:22/M
10 Max Koenigbauer Grosse Pte Wds MI 8 73 23:56.2 9:34/M
11 Shay Gualdoni Grosse Pte Wds MI 9 76 24:02.8 9:37/M
12 Sam Godin Clinton Township MI 10 78 24:14.2 9:42/M
13 Jonas Lange Grosse Pte Wds MI 11 80 24:56.9 9:58/M
14 Nathan Clulo Sterling Heights MI 11 81 25:02.9 10:01/M
15 Sean Parker Hudson MI 6 90 26:14.3 10:30/M
16 Harrison Arnold Clinton Township MI 7 91 26:14.8 10:30/M
17 Nicholas Tobin Utica MI 9 95 27:36.2 11:02/M
18 Peyton Dub Eastpointe MI 6 106 30:50.4 12:20/M
19 August Rannow Utica MI 12 109 31:20.7 12:32/M
20 Brady Dworkin Sterling Heights MI 4 113 37:55.0 15:10/M
21 Matthew Michalowski Northville MI 13 115 44:30.8 17:48/M

Male 15 and over

Place Name City Age Overall Time Pace
1 Jaykeon Reed Roseville MI 16 9 17:19.0 6:56/M
2 David Durfee New Baltimore MI 37 10 17:19.6 6:56/M
3 Turran Harper Southfield MI 61 11 17:20.3 6:56/M
4 Brian Fedoronko Ann Arbor MI 45 13 17:31.4 7:00/M
5 Brian Johnson Roseville MI 31 14 17:48.0 7:07/M
6 William Kalmar Grosse Pointe MI 43 15 17:58.0 7:11/M
7 Mark Peterson Warren MI 24 18 18:15.4 7:18/M
8 Tim Watkins St. Clair Shores MI 34 19 18:36.8 7:26/M
9 Michael McLane Macomb Township MI 39 20 18:39.5 7:28/M
10 David Gehart Utica MI 26 21 18:40.9 7:28/M
11 Andrew Skaltsounis Warren MI 38 23 18:45.9 7:30/M
12 Anthony Taylor Romulus MI 37 24 18:57.6 7:35/M
13 Griffin Schroeder Harrison Twp MI 15 25 19:15.9 7:42/M
14 Steven Bonasso Grosse Pte Wds MI 41 28 19:29.1 7:48/M
15 Craig Jarvi Roseville MI 33 29 19:45.2 7:54/M
16 Matthew Jackson Utica MI 26 30 19:49.7 7:56/M
17 Dan Stultz Fraser MI 63 31 20:03.4 8:01/M
18 Brian McDonald Harrison Twp MI 61 32 20:04.7 8:02/M
19 Tim Coyne Roseville MI 53 33 20:05.7 8:02/M
20 Mitz Ishikura Farmington MI 36 34 20:06.4 8:02/M
21 James Jenkins Sterling Heights MI 34 36 20:16.6 8:06/M
22 Michael Sanchez Oxford MI 37 37 20:35.1 8:14/M
23 Josh Rausch Roseville MI 32 38 20:40.4 8:16/M
24 Jeff Barello Sterling Heights MI 31 39 20:40.4 8:16/M
25 Scott Ceitaleino Rochester Hills MI 51 40 20:44.1 8:18/M
26 Don Sharp Roseville MI 35 41 20:52.3 8:21/M
27 Dennis Baker New Baltimore MI 32 42 20:53.2 8:21/M
28 Kevin Sherwood Royal Oak MI 50 43 20:54.5 8:22/M
29 Kevin Rey Grosse Pte Wds MI 22 44 20:58.5 8:23/M
30 Kevin Suppon Mount Pleasant MI 22 45 20:59.9 8:24/M
31 Kevin Kuczynski Macomb Township MI 38 46 21:04.6 8:26/M
32 Michael Hendren Roseville MI 18 47 21:05.5 8:26/M
33 Chris Allen Eastpointe MI 41 48 21:08.3 8:27/M
34 Scott Kujawski Jr Roseville MI 21 49 21:17.4 8:31/M
35 Jay Trempler Algonac MI 55 50 21:20.3 8:32/M
36 Rich Heide Royal Oak 40 51 21:26.3 8:34/M
37 Bret Prater Liberty MO 44 52 21:43.2 8:41/M
38 Ron Fedoronko Warren 69 54 21:53.6 8:45/M
39 Brandyn Fecteau Clinton Township MI 23 55 21:56.3 8:46/M
40 Jon Maurin Roseville MI 35 56 22:00.6 8:48/M
41 John Winn Southgate MI 48 57 22:13.2 8:53/M
42 Jesse Craft Fraser MI 32 58 22:14.0 8:54/M
43 Robert Sutterfield Roseville MI 47 60 22:18.7 8:55/M
44 Kraig MacPhee Roseville MI 33 62 22:26.8 8:58/M
45 Chad Barnett Roseville MI 37 63 22:26.9 8:58/M
46 Bob Kruse Warren MI 70 64 22:33.5 9:01/M
47 John Schmidt Shelby Township MI 44 65 22:35.8 9:02/M
48 Joe Burns 54 66 22:51.3 9:08/M
49 Mike McIntosh Ann Arbor MI 50 67 22:57.2 9:11/M
50 Jeffrey Soderberg Eastpointe MI 35 69 23:29.4 9:24/M
51 Albert Keown Roseville MI 59 70 23:42.4 9:29/M
52 Jeff Mattar Clinton Township MI 54 71 23:43.7 9:29/M
53 Ted Vanderputten Harrison Twp MI 62 72 23:44.4 9:30/M
54 Tim Bolle Clinton Township MI 45 74 23:56.4 9:34/M
55 Steve Clark St. Clair Shores MI 44 75 23:56.7 9:34/M
56 Jay Ferguson St. Clair Shores MI 43 77 24:07.6 9:39/M
57 Ken Forche Memphis MI 43 79 24:27.1 9:47/M
58 Christopher Woody Harrison Twp MI 27 82 25:20.4 10:08/M
59 Jason Noyer Lansing MI 44 83 25:44.2 10:18/M
60 Anthony Rey Grosse Pte Wds MI 55 84 25:49.2 10:20/M
61 Robert Martill Oconomowoc WI 43 85 25:53.9 10:21/M
62 Dan Dewey Lake Orion MI 66 86 26:01.6 10:24/M
63 Jason MacAuley Warren MI 39 87 26:01.8 10:24/M
64 Jeff Lamiman Warren MI 32 88 26:02.8 10:25/M
65 Mieke Parker Rochester MI 40 89 26:05.1 10:26/M
66 Fred Arnold Clinton Township MI 35 92 26:16.1 10:30/M
67 Ray Bonkowski Clinton Township MI 44 93 26:27.4 10:35/M
68 Robert Pruneda Roseville MI 46 94 26:40.5 10:40/M
69 Don Holston Armada MI 43 96 27:46.3 11:06/M
70 Ernest Richmond Indian River MI 68 97 27:53.2 11:09/M
71 Eric Rannow Utica MI 43 98 28:18.8 11:19/M
72 Gregory Gamalski Bloomfield Hills MI 57 99 28:19.4 11:20/M
73 Steven Sutter Utica MI 33 100 28:49.5 11:32/M
74 John Banados Sterling Heights MI 33 101 28:56.3 11:34/M
75 Walter Ryan Warren MI 67 102 29:24.3 11:46/M
76 Norm Killop Jr Shelby Township MI 74 103 29:36.6 11:50/M
77 Tom MacKlem Roseville MI 39 104 29:55.4 11:58/M
78 Gary Simon Warren MI 67 105 30:10.5 12:04/M
79 Chester Dub Eastpointe MI 38 107 30:50.6 12:20/M
80 Ralph Bowers Clinton Township MI 39 108 30:50.6 12:20/M
81 John Wenzel Lapeer MI 57 110 32:17.4 12:55/M
82 Philip Pitkin Hartland MI 61 111 33:22.8 13:21/M
83 David E. Pelton Centerline 68 112 36:32.1 14:37/M
84 Sam Dworkin Sterling Heights MI 33 114 37:55.9 15:10/M
85 David Draper Northville MI 36 116 44:31.5 17:48/M
86 John Michalowski Northville MI 15 117 44:31.8 17:48/M
87 Nick Bowers Warren MI 34 118 44:42.1 17:53/M




1 Mile
Overall Female 14 and Under Winners

Place Name City Age Overall Time Pace
1 Elisabeth Pettibone Sterling Heights MI 13 1 6:25.1 6:25/M
2 Emma Murray Berkley MI 12 2 6:48.2 6:48/M
3 Kaitlyn Kotelniski Roseville MI 12 3 7:11.8 7:11/M

Overall Female 15 And Older Winners

Place Name City Age Overall Time Pace
1 Mai Kozlowski Macomb Township MI 40 9 8:22.2 8:22/M
2 Rebecca Tennant Warren MI 28 10 8:46.1 8:46/M
3 Rose Sherman St. Clair Shores MI 32 19 10:34.3 10:34/M

Female 14 and under

Place Name City Age Overall Time Pace
1 Jasmine Bryja Warren MI 10 4 7:27.8 7:27/M
2 Alyssa Hall Washington MI 9 5 7:30.8 7:30/M
3 Madison Oakie Clinton Township MI 9 6 8:02.7 8:02/M
4 Victoria Smitley Macomb Township MI 12 7 8:18.6 8:18/M
5 Izzy Hanson Rochester MI 6 8 8:21.7 8:21/M
6 Amanda Hall Washington MI 13 11 8:47.6 8:47/M
7 Alexandra Trubey Clinton Township MI 11 12 9:42.0 9:42/M
8 Erin Boddington Roseville MI 10 13 9:57.4 9:57/M
9 Reagan Myers New Baltimore MI 7 14 10:00.1 10:00/M
10 Emiey Walsh Macomb MI 11 15 10:00.2 10:00/M
11 Paige Showers Roseville MI 11 16 10:03.6 10:03/M
12 Ashlyn McCullum Roseville MI 11 17 10:20.8 10:20/M
13 Mary Holton Saint Clair Shores MI 10 18 10:21.9 10:21/M
14 Samantha Adams Macomb MI 6 20 10:37.0 10:37/M
15 Riley Simmonds New Baltimore MI 12 23 11:15.3 11:15/M
16 Panauiota Roustemis Grosse Pte Wds MI 6 25 11:56.6 11:56/M
17 Erin Vandenbrink Utica MI 9 26 12:01.5 12:01/M
18 Miranda Rumfelt Roseville MI 12 27 12:41.6 12:41/M
19 Macey Liberty Mount Clemens MI 11 30 12:53.4 12:53/M
20 Natalie Adams 10 32 13:07.0 13:07/M
21 Leah Sobick Clinton Township MI 5 33 13:23.0 13:23/M
22 Sarah Allen Roseville MI 12 34 13:46.0 13:46/M
23 Ryann Simmonds New Baltimore MI 7 37 15:12.2 15:12/M
24 Ava McParland Saint Clair Shores MI 7 38 15:12.5 15:12/M

Female 15 and over

Place Name City Age Overall Time Pace
1 Deborah Kullman Utica MI 42 21 11:06.0 11:06/M
2 Kristen Briggs Saint Clair Shores MI 37 22 11:09.4 11:09/M
3 Laura Griskie Macomb MI 39 24 11:54.2 11:54/M
4 Martha Meyer Roseville MI 62 28 12:52.2 12:52/M
5 Crystal Breger Saint Clair Shores MI 36 29 12:52.8 12:52/M
6 Joanne Tradii New Baltimore MI 57 31 13:01.5 13:01/M
7 Doris Rumfelt Roseville MI 38 35 14:26.5 14:26/M
8 Patricia Bolle Roseville MI 72 36 15:09.6 15:09/M
9 Revonda Kuderik New Boston MI 58 39 15:53.7 15:53/M
10 Kym Choike Roseville MI 34 40 16:02.0 16:02/M
11 Marie Yaden Clinton Township MI 55 41 16:15.0 16:15/M
12 Debbie Smith Saint Clair Shores MI 57 42 16:30.0 16:30/M
13 Cressie Boggs Grosse Pointe MI 33 43 16:31.0 16:31/M
14 Lisa Allen Roseville MI 42 44 16:32.1 16:32/M
15 Susan Lauinger Roseville MI 60 45 16:34.6 16:34/M
16 Donna Sutter Utica MI 53 46 16:34.8 16:34/M
17 Millie Trinkwalder Roseville MI 68 47 16:36.4 16:36/M
18 Jeannette Johnstone Saint Clair Shores MI 55 48 16:53.9 16:53/M
19 Cindy Kaczmarek Eastpointe MI 54 49 16:55.7 16:55/M
20 Donna MacAuley Warren MI 44 50 17:12.8 17:12/M
21 Anita Harper Southfield MI 55 51 17:43.3 17:43/M
22 Becky Riesterer Commerce Township MI 62 52 18:36.2 18:36/M
23 Denise Matthews Detroit MI 66 53 18:57.5 18:57/M
24 Melanie Coleman Eastpointe MI 43 54 18:58.0 18:58/M
25 Lisa Ballinger Chesterfield MI 49 55 19:25.0 19:25/M
26 Renee Blonde Roseville MI 41 56 19:27.0 19:27/M
27 Melissa Childress Roseville MI 43 57 20:04.9 20:04/M
28 Lenore Land Warren MI 82 58 20:05.0 20:05/M

Overall Male 14 and Under Winners

Place Name City Age Overall Time Pace
1 William Hofmann Grosse Pte Wds MI 11 1 5:41.8 5:41/M
2 Nicholas Murray Berkley MI 12 3 5:44.3 5:44/M
3 Colin Hanson Rochester MI 9 6 6:51.0 6:51/M

Overall Male 15 And Older Winners

Place Name City Age Overall Time Pace
1 David Hofmann Grosse Pte Wds MI 51 2 5:42.0 5:42/M
2 Kevin Sherwood Royal Oak MI 50 4 6:16.3 6:16/M
3 Terrence Kinsch St. Clair Shores MI 53 5 6:47.7 6:47/M

Male 14 and under

Place Name City Age Overall Time Pace
1 Hunter Showers Roseville MI 13 7 7:43.1 7:43/M
2 Mitchell Childress Roseville MI 11 8 7:52.8 7:52/M
3 Charles Smitley Macomb Township MI 14 9 8:05.2 8:05/M
4 Kole McCullum Roseville MI 10 10 8:10.8 8:10/M
5 Ben Griskie Macomb MI 8 11 8:14.4 8:14/M
6 Ryan Shiemke Roseville MI 11 12 8:45.5 8:45/M
7 Dylan Myers New Baltimore MI 8 13 8:57.0 8:57/M
8 Maxwell Childress Roseville MI 8 14 8:59.4 8:59/M
9 Max Godin Clinton Township MI 9 15 9:17.9 9:17/M
10 Will Boddington Roseville MI 14 18 11:00.0 11:00/M
11 Nate Liberty Mt. Clemens MI 7 22 14:01.6 14:01/M
12 Michael Raestemis Grosse Pte Wds MI 5 23 14:40.0 14:40/M
13 Alexander MacAuley Warren MI 9 24 16:12.2 16:12/M

Male 15 and over

Place Name City Age Overall Time Pace
1 Ken Kullman Utica MI 43 16 9:27.0 9:27/M
2 Scott Showers Roseville MI 37 17 9:45.4 9:45/M
3 Ronald Konopka Harper Woods MI 69 19 11:00.7 11:00/M
4 Bill Boddington Roseville MI 48 20 11:08.0 11:08/M
5 William Showers Roseville MI 67 21 12:21.0 12:21/M
6 John Trinkwalder Fraser MI 68 25 16:36.2 16:36/M
7 James Land Warren MI 52 26 20:05.2 20:05/M
8 Benjamin Childress Roseville MI 17 27 20:05.8 20:05/M

Roseville, MI
Provided by Hansons Race Management